Terminal Aerodrome Forecast
Issued by NWS

Home | Current Version | Previous Version | Graphics & Text | Print | Product List | Glossary On
Versions: 1 2 3 4 5 6 7 8 9 10 11 12 13 14 15 16 17 18 19 20 21 22
000
FTUS43 KMPX 200656 AAA
TAFAXN
TAF AMD
KAXN 200656Z 2007/2106 05011KT 6SM -SN BR OVC020
      TEMPO 2007/2009 2SM -SN BR OVC015
     FM200900 03011KT 3/4SM -SN BR VV008
     FM201200 02010KT 2SM -SN BR OVC011
     FM201400 01009KT 3SM -SN BR OVC015
     FM201700 34012KT P6SM OVC015
     FM210200 30010KT P6SM BKN035
     FM210400 29009KT P6SM SCT090=

USA.gov is the U.S. government's official web portal to all federal, state and local government web resources and services.